createdAt,value
2017-11-06T00:00:55.491Z,1007.62
2017-11-06T00:01:55.512Z,1007.67
2017-11-06T00:02:55.528Z,1007.66
2017-11-06T00:03:55.547Z,1007.7
2017-11-06T00:04:55.570Z,1007.75
2017-11-06T00:05:55.590Z,1007.72
2017-11-06T00:06:55.603Z,1007.75
2017-11-06T00:07:55.626Z,1007.75
2017-11-06T00:08:55.645Z,1007.78
2017-11-06T00:09:55.663Z,1007.77
2017-11-06T00:10:55.678Z,1007.76
2017-11-06T00:11:55.702Z,1007.77
2017-11-06T00:12:55.720Z,1007.8
2017-11-06T00:13:55.735Z,1007.79
2017-11-06T00:14:55.757Z,1007.8
2017-11-06T00:15:55.773Z,1007.78
2017-11-06T00:16:55.791Z,1007.8
2017-11-06T00:18:55.833Z,1007.85
2017-11-06T00:19:55.853Z,1007.89
2017-11-06T00:20:55.870Z,1007.85
2017-11-06T00:21:55.889Z,1007.89
2017-11-06T00:22:55.905Z,1007.9
2017-11-06T00:23:55.926Z,1007.91
2017-11-06T00:24:55.945Z,1007.96
2017-11-06T00:25:55.963Z,1007.94
2017-11-06T00:26:55.981Z,1008.02
2017-11-06T00:27:56.000Z,1007.99
2017-11-06T00:28:56.022Z,1008.02
2017-11-06T00:29:56.040Z,1008.04
2017-11-06T00:30:56.056Z,1008.05
2017-11-06T00:31:56.078Z,1008.11
2017-11-06T00:32:56.096Z,1008.1
2017-11-06T00:34:56.132Z,1008.12
2017-11-06T00:35:56.151Z,1008.15
2017-11-06T00:36:56.172Z,1008.15
2017-11-06T00:37:56.192Z,1008.17
2017-11-06T00:38:56.210Z,1008.19
2017-11-06T00:39:56.225Z,1008.21
2017-11-06T00:40:56.245Z,1008.18
2017-11-06T00:41:56.267Z,1008.17
2017-11-06T00:42:56.281Z,1008.19
2017-11-06T00:43:56.304Z,1008.23
2017-11-06T00:44:56.321Z,1008.21
2017-11-06T00:45:56.340Z,1008.24
2017-11-06T00:46:56.358Z,1008.21
2017-11-06T00:47:56.379Z,1008.24
2017-11-06T00:48:56.396Z,1008.23
2017-11-06T00:50:56.437Z,1008.26
2017-11-06T00:51:56.456Z,1008.27
2017-11-06T00:52:56.472Z,1008.22
2017-11-06T00:53:56.491Z,1008.29
2017-11-06T00:54:56.512Z,1008.25
2017-11-06T00:55:56.528Z,1008.34
2017-11-06T00:56:56.548Z,1008.36
2017-11-06T00:57:56.568Z,1008.35
2017-11-06T00:58:56.584Z,1008.36
2017-11-06T00:59:56.606Z,1008.36
2017-11-06T01:00:56.620Z,1008.41
2017-11-06T01:01:56.643Z,1008.39
2017-11-06T01:02:56.664Z,1008.39
2017-11-06T01:03:56.679Z,1008.46
2017-11-06T01:04:56.697Z,1008.4
2017-11-06T01:06:56.738Z,1008.41
2017-11-06T01:07:56.755Z,1008.41
2017-11-06T01:08:56.776Z,1008.37
2017-11-06T01:09:56.792Z,1008.41
2017-11-06T01:10:56.814Z,1008.36
2017-11-06T01:11:56.828Z,1008.42
2017-11-06T01:12:56.851Z,1008.4
2017-11-06T01:13:56.871Z,1008.39
2017-11-06T01:14:56.886Z,1008.38
2017-11-06T01:15:56.905Z,1008.35
2017-11-06T01:16:56.923Z,1008.32
2017-11-06T01:17:56.943Z,1008.33
2017-11-06T01:18:56.965Z,1008.3
2017-11-06T01:19:56.984Z,1008.28
2017-11-06T01:21:57.018Z,1008.33
2017-11-06T01:22:57.036Z,1008.36
2017-11-06T01:23:57.057Z,1008.33
2017-11-06T01:24:57.075Z,1008.39
2017-11-06T01:25:57.095Z,1008.36
2017-11-06T01:26:57.112Z,1008.39
2017-11-06T01:27:57.135Z,1008.4
2017-11-06T01:28:57.150Z,1008.42
2017-11-06T01:29:57.169Z,1008.44
2017-11-06T01:30:57.187Z,1008.51
2017-11-06T01:31:57.206Z,1008.46
2017-11-06T01:32:57.229Z,1008.5
2017-11-06T01:33:57.248Z,1008.46
2017-11-06T01:34:57.262Z,1008.52
2017-11-06T01:35:57.281Z,1008.52
2017-11-06T01:36:57.304Z,1008.54
2017-11-06T01:37:57.321Z,1008.62
2017-11-06T01:38:57.337Z,1008.61
2017-11-06T01:39:57.357Z,1008.6
2017-11-06T01:40:57.379Z,1008.58
2017-11-06T01:41:57.395Z,1008.62
2017-11-06T01:42:57.417Z,1008.66
2017-11-06T01:43:57.432Z,1008.61
2017-11-06T01:44:57.450Z,1008.61
2017-11-06T01:45:57.470Z,1008.62
2017-11-06T01:46:57.488Z,1008.62
2017-11-06T01:47:57.510Z,1008.6
2017-11-06T01:48:57.526Z,1008.62
2017-11-06T01:49:57.548Z,1008.59
2017-11-06T01:50:57.566Z,1008.6
2017-11-06T01:51:57.585Z,1008.62
2017-11-06T01:53:57.623Z,1008.7
2017-11-06T01:54:57.642Z,1008.66
2017-11-06T01:55:57.660Z,1008.68
2017-11-06T01:56:57.679Z,1008.66
2017-11-06T01:57:57.695Z,1008.75
2017-11-06T01:58:57.718Z,1008.75
2017-11-06T01:59:57.733Z,1008.75
2017-11-06T02:00:57.754Z,1008.74
2017-11-06T02:01:57.771Z,1008.81
2017-11-06T02:02:57.789Z,1008.78
2017-11-06T02:03:57.806Z,1008.81
2017-11-06T02:04:57.853Z,1008.83
2017-11-06T02:05:57.847Z,1008.83
2017-11-06T02:06:57.861Z,1008.85
2017-11-06T02:07:57.883Z,1008.84
2017-11-06T02:09:57.918Z,1008.81
2017-11-06T02:10:57.936Z,1008.84
2017-11-06T02:11:57.957Z,1008.85
2017-11-06T02:12:57.977Z,1008.81
2017-11-06T02:13:57.991Z,1008.84
2017-11-06T02:14:58.012Z,1008.89
2017-11-06T02:15:58.032Z,1008.91
2017-11-06T02:16:58.055Z,1008.98
2017-11-06T02:17:58.068Z,1008.96
2017-11-06T02:18:58.089Z,1008.99
2017-11-06T02:19:58.103Z,1009
2017-11-06T02:20:58.123Z,1009.04
2017-11-06T02:21:58.145Z,1009.02
2017-11-06T02:22:58.164Z,1009.07
2017-11-06T02:23:58.180Z,1009.05
2017-11-06T02:25:58.219Z,1009.09
2017-11-06T02:26:58.260Z,1009.05
2017-11-06T02:27:58.257Z,1009.05
2017-11-06T02:28:58.277Z,1009.06
2017-11-06T02:29:58.290Z,1009.05
2017-11-06T02:30:58.309Z,1009.03
2017-11-06T02:31:58.331Z,1009.07
2017-11-06T02:32:58.346Z,1009.02
2017-11-06T02:33:58.369Z,1009.06
2017-11-06T02:34:58.386Z,1009.09
2017-11-06T02:35:58.402Z,1009.11
2017-11-06T02:36:58.424Z,1009.11
2017-11-06T02:37:58.442Z,1009.15
2017-11-06T02:38:58.459Z,1009.21
2017-11-06T02:39:58.479Z,1009.25
2017-11-06T02:41:58.525Z,1009.33
2017-11-06T02:42:58.533Z,1009.29
2017-11-06T02:43:58.554Z,1009.32
2017-11-06T02:44:58.574Z,1009.38
2017-11-06T02:45:58.591Z,1009.39
2017-11-06T02:46:58.608Z,1009.41
2017-11-06T02:47:58.625Z,1009.42
2017-11-06T02:48:58.645Z,1009.45
2017-11-06T02:49:58.668Z,1009.52
2017-11-06T02:50:58.685Z,1009.46
2017-11-06T02:51:58.703Z,1009.54
2017-11-06T02:52:58.720Z,1009.48
2017-11-06T02:53:58.741Z,1009.52
2017-11-06T02:54:58.757Z,1009.49
2017-11-06T02:56:58.796Z,1009.55
2017-11-06T02:57:58.818Z,1009.57
2017-11-06T02:58:58.832Z,1009.56
2017-11-06T02:59:58.854Z,1009.57
2017-11-06T03:00:58.870Z,1009.59
2017-11-06T03:01:58.890Z,1009.59
2017-11-06T03:02:58.906Z,1009.66
2017-11-06T03:03:58.928Z,1009.66
2017-11-06T03:04:58.945Z,1009.65
2017-11-06T03:05:58.962Z,1009.7
2017-11-06T03:06:58.984Z,1009.69
2017-11-06T03:07:58.998Z,1009.71
2017-11-06T03:08:59.020Z,1009.7
2017-11-06T03:09:59.039Z,1009.65
2017-11-06T03:10:59.055Z,1009.68
2017-11-06T03:11:59.077Z,1009.66
2017-11-06T03:12:59.094Z,1009.66
2017-11-06T03:13:59.110Z,1009.71
2017-11-06T03:14:59.132Z,1009.65
2017-11-06T03:15:59.150Z,1009.68
2017-11-06T03:16:59.176Z,1009.66
2017-11-06T03:17:59.184Z,1009.61
2017-11-06T03:18:59.202Z,1009.63
2017-11-06T03:19:59.221Z,1009.64
2017-11-06T03:20:59.243Z,1009.65
2017-11-06T03:21:59.261Z,1009.63
2017-11-06T03:22:59.277Z,1009.67
2017-11-06T03:23:59.298Z,1009.7
2017-11-06T03:24:59.316Z,1009.8
2017-11-06T03:25:59.332Z,1009.86
2017-11-06T03:26:59.352Z,1009.96
2017-11-06T03:28:59.388Z,1010.02
2017-11-06T03:29:59.407Z,1010.05
2017-11-06T03:30:59.427Z,1010.1
2017-11-06T03:31:59.446Z,1010.11
2017-11-06T03:32:59.462Z,1010.14
2017-11-06T03:33:59.482Z,1010.16
2017-11-06T03:34:59.501Z,1010.19
2017-11-06T03:35:59.519Z,1010.22
2017-11-06T03:36:59.536Z,1010.27
2017-11-06T03:37:59.557Z,1010.3
2017-11-06T03:38:59.579Z,1010.32
2017-11-06T03:39:59.592Z,1010.33
2017-11-06T03:40:59.610Z,1010.28
2017-11-06T03:41:59.630Z,1010.32
2017-11-06T03:42:59.646Z,1010.31
2017-11-06T03:44:59.684Z,1010.26
2017-11-06T03:45:59.703Z,1010.27
2017-11-06T03:46:59.736Z,1010.22
2017-11-06T03:47:59.739Z,1010.22
2017-11-06T03:48:59.756Z,1010.21
2017-11-06T03:49:59.778Z,1010.22
2017-11-06T03:50:59.794Z,1010.19
2017-11-06T03:51:59.812Z,1010.25
2017-11-06T03:52:59.832Z,1010.23
2017-11-06T03:53:59.853Z,1010.26
2017-11-06T03:54:59.867Z,1010.27
2017-11-06T03:55:59.887Z,1010.28
2017-11-06T03:56:59.907Z,1010.29
2017-11-06T03:57:59.923Z,1010.32
2017-11-06T03:58:59.944Z,1010.4
2017-11-06T04:00:59.982Z,1010.38
2017-11-06T04:02:00.000Z,1010.45
2017-11-06T04:03:00.016Z,1010.45
2017-11-06T04:04:00.037Z,1010.42
2017-11-06T04:05:00.052Z,1010.5
2017-11-06T04:06:00.071Z,1010.49
2017-11-06T04:07:00.094Z,1010.46
2017-11-06T04:08:00.108Z,1010.49
2017-11-06T04:09:00.127Z,1010.52
2017-11-06T04:10:00.147Z,1010.57
2017-11-06T04:11:00.162Z,1010.61
2017-11-06T04:12:00.185Z,1010.58
2017-11-06T04:13:00.200Z,1010.66
2017-11-06T04:14:00.221Z,1010.61
2017-11-06T04:15:00.239Z,1010.61
2017-11-06T04:17:00.278Z,1010.63
2017-11-06T04:18:00.296Z,1010.66
2017-11-06T04:19:00.313Z,1010.71
2017-11-06T04:20:00.347Z,1010.73
2017-11-06T04:21:00.351Z,1010.76
2017-11-06T04:22:00.367Z,1010.8
2017-11-06T04:23:00.390Z,1010.84
2017-11-06T04:24:00.406Z,1010.82
2017-11-06T04:25:00.425Z,1010.88
2017-11-06T04:26:00.443Z,1010.96
2017-11-06T04:27:00.457Z,1010.98
2017-11-06T04:28:00.477Z,1010.98
2017-11-06T04:29:00.497Z,1011.01
2017-11-06T04:30:00.514Z,1010.93
2017-11-06T04:32:00.551Z,1011.07
2017-11-06T04:33:00.572Z,1011.03
2017-11-06T04:34:00.587Z,1011
2017-11-06T04:35:00.607Z,1011.02
2017-11-06T04:36:00.624Z,1011.04
2017-11-06T04:37:00.645Z,1011.01
2017-11-06T04:38:00.661Z,1010.97
2017-11-06T04:39:00.683Z,1011
2017-11-06T04:40:00.697Z,1010.99
2017-11-06T04:41:00.719Z,1011.02
2017-11-06T04:42:00.738Z,1011.08
2017-11-06T04:43:00.757Z,1011.02
2017-11-06T04:44:00.774Z,1011.05
2017-11-06T04:45:00.790Z,1011.09
2017-11-06T04:46:00.810Z,1011.07
2017-11-06T04:47:00.829Z,1011.08
2017-11-06T04:48:00.844Z,1011.1
2017-11-06T04:49:00.865Z,1011.11
2017-11-06T04:50:00.885Z,1011.08
2017-11-06T04:51:00.902Z,1011.11
2017-11-06T04:52:00.920Z,1011.1
2017-11-06T04:53:00.936Z,1011.11
2017-11-06T04:54:00.957Z,1011.12
2017-11-06T04:55:00.976Z,1011.16
2017-11-06T04:56:00.992Z,1011.15
2017-11-06T04:57:01.009Z,1011.15
2017-11-06T04:58:01.028Z,1011.13
2017-11-06T04:59:01.046Z,1011.18
2017-11-06T05:00:01.064Z,1011.2
2017-11-06T05:01:01.082Z,1011.19
2017-11-06T05:02:01.104Z,1011.19
2017-11-06T05:04:01.141Z,1011.16
2017-11-06T05:05:01.155Z,1011.2
2017-11-06T05:06:01.175Z,1011.24
2017-11-06T05:07:01.195Z,1011.23
2017-11-06T05:08:01.214Z,1011.29
2017-11-06T05:09:01.233Z,1011.25
2017-11-06T05:10:01.250Z,1011.33
2017-11-06T05:11:01.269Z,1011.31
2017-11-06T05:12:01.285Z,1011.35
2017-11-06T05:13:01.304Z,1011.37
2017-11-06T05:14:01.322Z,1011.37
2017-11-06T05:15:01.338Z,1011.36
2017-11-06T05:16:01.357Z,1011.37
2017-11-06T05:17:01.376Z,1011.36
2017-11-06T05:18:01.391Z,1011.36
2017-11-06T05:20:01.432Z,1011.38
2017-11-06T05:21:01.446Z,1011.42
2017-11-06T05:22:01.472Z,1011.4
2017-11-06T05:23:01.483Z,1011.44
2017-11-06T05:24:01.502Z,1011.46
2017-11-06T05:25:01.521Z,1011.46
2017-11-06T05:26:01.538Z,1011.51
2017-11-06T05:27:01.560Z,1011.52
2017-11-06T05:28:01.574Z,1011.52
2017-11-06T05:29:01.597Z,1011.49
2017-11-06T05:30:01.613Z,1011.53
2017-11-06T05:31:01.633Z,1011.56
2017-11-06T05:32:01.650Z,1011.56
2017-11-06T05:33:01.667Z,1011.57
2017-11-06T05:34:01.683Z,1011.59
2017-11-06T05:36:01.719Z,1011.64
2017-11-06T05:37:01.740Z,1011.64
2017-11-06T05:38:01.755Z,1011.59
2017-11-06T05:39:01.773Z,1011.61
2017-11-06T05:40:01.801Z,1011.66
2017-11-06T05:41:01.813Z,1011.61
2017-11-06T05:42:01.828Z,1011.71
2017-11-06T05:43:01.845Z,1011.7
2017-11-06T05:44:01.876Z,1011.71
2017-11-06T05:45:01.887Z,1011.73
2017-11-06T05:46:01.908Z,1011.78
2017-11-06T05:47:01.920Z,1011.79
2017-11-06T05:48:01.939Z,1011.82
2017-11-06T05:49:01.955Z,1011.82
2017-11-06T05:50:01.977Z,1011.86
2017-11-06T05:52:02.014Z,1011.9
2017-11-06T05:53:02.032Z,1011.94
2017-11-06T05:54:02.045Z,1011.95
2017-11-06T05:55:02.064Z,1011.93
2017-11-06T05:56:02.085Z,1012
2017-11-06T05:57:02.100Z,1012.03
2017-11-06T05:58:02.120Z,1012.03
2017-11-06T05:59:02.142Z,1012.01
2017-11-06T06:00:02.156Z,1012.03
2017-11-06T06:01:02.173Z,1012.05
2017-11-06T06:02:02.205Z,1012.09
2017-11-06T06:03:02.212Z,1012.15
2017-11-06T06:04:02.230Z,1012.12
2017-11-06T06:05:02.256Z,1012.16
2017-11-06T06:07:02.285Z,1012.21
2017-11-06T06:08:02.304Z,1012.18
2017-11-06T06:09:02.326Z,1012.26
2017-11-06T06:10:02.340Z,1012.24
2017-11-06T06:11:02.364Z,1012.25
2017-11-06T06:12:02.372Z,1012.25
2017-11-06T06:13:02.398Z,1012.26
2017-11-06T06:14:02.412Z,1012.28
2017-11-06T06:15:02.430Z,1012.25
2017-11-06T06:16:02.448Z,1012.28
2017-11-06T06:17:02.463Z,1012.35
2017-11-06T06:18:02.484Z,1012.33
2017-11-06T06:19:02.502Z,1012.37
2017-11-06T06:20:02.517Z,1012.39
2017-11-06T06:21:02.538Z,1012.47
2017-11-06T06:22:02.554Z,1012.5
2017-11-06T06:23:02.573Z,1012.48
2017-11-06T06:24:02.595Z,1012.53
2017-11-06T06:25:02.612Z,1012.55
2017-11-06T06:26:02.626Z,1012.51
2017-11-06T06:27:02.643Z,1012.56
2017-11-06T06:28:02.681Z,1012.55
2017-11-06T06:29:02.680Z,1012.63
2017-11-06T06:30:02.698Z,1012.6
2017-11-06T06:31:02.718Z,1012.63
2017-11-06T06:32:02.733Z,1012.65
2017-11-06T06:33:02.751Z,1012.67
2017-11-06T06:34:02.771Z,1012.69
2017-11-06T06:35:02.790Z,1012.69
2017-11-06T06:36:02.804Z,1012.75
2017-11-06T06:37:02.825Z,1012.75
2017-11-06T06:39:02.857Z,1012.82
2017-11-06T06:40:02.879Z,1012.83
2017-11-06T06:41:02.893Z,1012.9
2017-11-06T06:42:02.917Z,1012.94
2017-11-06T06:43:02.930Z,1012.94
2017-11-06T06:44:02.951Z,1012.93
2017-11-06T06:45:02.965Z,1012.96
2017-11-06T06:46:02.984Z,1012.99
2017-11-06T06:47:03.006Z,1013.01
2017-11-06T06:48:03.024Z,1013.01
2017-11-06T06:49:03.043Z,1012.98
2017-11-06T06:50:03.057Z,1012.99
2017-11-06T06:51:03.072Z,1013.01
2017-11-06T06:52:03.094Z,1013.06
2017-11-06T06:53:03.111Z,1013.09
2017-11-06T06:55:03.145Z,1013.12
2017-11-06T06:56:03.167Z,1013.16
2017-11-06T06:57:03.180Z,1013.15
2017-11-06T06:58:03.202Z,1013.19
2017-11-06T06:59:03.216Z,1013.22
2017-11-06T07:00:03.240Z,1013.2
2017-11-06T07:01:03.256Z,1013.26
2017-11-06T07:02:03.274Z,1013.24
2017-11-06T07:03:03.292Z,1013.25
2017-11-06T07:04:03.309Z,1013.28
2017-11-06T07:05:03.330Z,1013.29
2017-11-06T07:06:03.343Z,1013.32
2017-11-06T07:07:03.359Z,1013.28
2017-11-06T07:08:03.382Z,1013.32
2017-11-06T07:09:03.401Z,1013.34
2017-11-06T07:11:03.435Z,1013.35
2017-11-06T07:12:03.454Z,1013.33
2017-11-06T07:13:03.472Z,1013.35
2017-11-06T07:14:03.490Z,1013.35
2017-11-06T07:15:03.508Z,1013.37
2017-11-06T07:16:03.525Z,1013.41
2017-11-06T07:17:03.544Z,1013.44
2017-11-06T07:18:03.563Z,1013.48
2017-11-06T07:19:03.577Z,1013.49
2017-11-06T07:20:03.597Z,1013.54
2017-11-06T07:21:03.613Z,1013.59
2017-11-06T07:22:03.634Z,1013.59
2017-11-06T07:23:03.662Z,1013.64
2017-11-06T07:24:03.668Z,1013.67
2017-11-06T07:25:03.696Z,1013.75
2017-11-06T07:27:03.729Z,1013.79
2017-11-06T07:28:03.744Z,1013.81
2017-11-06T07:29:03.771Z,1013.85
2017-11-06T07:30:03.781Z,1013.84
2017-11-06T07:31:03.794Z,1013.85
2017-11-06T07:32:03.812Z,1013.79
2017-11-06T07:33:03.834Z,1013.85
2017-11-06T07:34:03.849Z,1013.77
2017-11-06T07:35:03.871Z,1013.85
2017-11-06T07:36:03.884Z,1013.84
2017-11-06T07:37:03.903Z,1013.89
2017-11-06T07:38:03.922Z,1013.91
2017-11-06T07:39:03.939Z,1013.95
2017-11-06T07:40:03.962Z,1013.92
2017-11-06T07:42:03.995Z,1013.98
2017-11-06T07:43:04.017Z,1014.05
2017-11-06T07:44:04.031Z,1014.1
2017-11-06T07:45:04.053Z,1014.09
2017-11-06T07:46:04.073Z,1014.02
2017-11-06T07:47:04.088Z,1014.12
2017-11-06T07:48:04.107Z,1014.11
2017-11-06T07:49:04.126Z,1014.12
2017-11-06T07:50:04.144Z,1014.12
2017-11-06T07:51:04.161Z,1014.14
2017-11-06T07:52:04.177Z,1014.16
2017-11-06T07:53:04.198Z,1014.15
2017-11-06T07:54:04.214Z,1014.2
2017-11-06T07:55:04.237Z,1014.17
2017-11-06T07:56:04.254Z,1014.19
2017-11-06T07:57:04.273Z,1014.22
2017-11-06T07:58:04.289Z,1014.23
2017-11-06T07:59:04.306Z,1014.25
2017-11-06T08:00:04.327Z,1014.25
2017-11-06T08:01:04.346Z,1014.25
2017-11-06T08:02:04.366Z,1014.22
2017-11-06T08:03:04.382Z,1014.25
2017-11-06T08:04:04.400Z,1014.25
2017-11-06T08:05:04.417Z,1014.25
2017-11-06T08:06:04.435Z,1014.27
2017-11-06T08:07:04.458Z,1014.32
2017-11-06T08:08:04.473Z,1014.35
2017-11-06T08:09:04.492Z,1014.37
2017-11-06T08:10:04.513Z,1014.37
2017-11-06T08:11:04.533Z,1014.42
2017-11-06T08:12:04.548Z,1014.48
2017-11-06T08:14:04.587Z,1014.5
2017-11-06T08:15:04.608Z,1014.51
2017-11-06T08:16:04.625Z,1014.49
2017-11-06T08:17:04.642Z,1014.58
2017-11-06T08:18:04.665Z,1014.56
2017-11-06T08:19:04.679Z,1014.6
2017-11-06T08:20:04.699Z,1014.63
2017-11-06T08:21:04.723Z,1014.63
2017-11-06T08:22:04.738Z,1014.67
2017-11-06T08:23:04.756Z,1014.62
2017-11-06T08:24:04.776Z,1014.69
2017-11-06T08:25:04.791Z,1014.7
2017-11-06T08:26:04.809Z,1014.72
2017-11-06T08:27:04.827Z,1014.74
2017-11-06T08:28:04.850Z,1014.76
2017-11-06T08:30:04.885Z,1014.78
2017-11-06T08:31:04.903Z,1014.81
2017-11-06T08:32:04.922Z,1014.76
2017-11-06T08:33:04.940Z,1014.78
2017-11-06T08:34:04.963Z,1014.74
2017-11-06T08:35:04.977Z,1014.74
2017-11-06T08:36:05.000Z,1014.77
2017-11-06T08:37:05.016Z,1014.8
2017-11-06T08:38:05.034Z,1014.79
2017-11-06T08:39:05.052Z,1014.83
2017-11-06T08:40:05.071Z,1014.88
2017-11-06T08:41:05.095Z,1014.91
2017-11-06T08:42:05.111Z,1014.94
2017-11-06T08:43:05.127Z,1014.97
2017-11-06T08:44:05.145Z,1014.97
2017-11-06T08:46:05.182Z,1015.05
2017-11-06T08:47:05.205Z,1015.05
2017-11-06T08:48:05.229Z,1015.04
2017-11-06T08:49:05.243Z,1015
2017-11-06T08:50:05.260Z,1015.07
2017-11-06T08:51:05.281Z,1015.09
2017-11-06T08:52:05.298Z,1015.13
2017-11-06T08:53:05.319Z,1015.18
2017-11-06T08:54:05.336Z,1015.24
2017-11-06T08:55:05.355Z,1015.23
2017-11-06T08:56:05.374Z,1015.23
2017-11-06T08:57:05.400Z,1015.27
2017-11-06T08:58:05.415Z,1015.35
2017-11-06T08:59:05.428Z,1015.33
2017-11-06T09:00:05.450Z,1015.34
2017-11-06T09:02:05.484Z,1015.36
2017-11-06T09:03:05.503Z,1015.32
2017-11-06T09:04:05.526Z,1015.37
2017-11-06T09:05:05.542Z,1015.4
2017-11-06T09:06:05.561Z,1015.39
2017-11-06T09:07:05.578Z,1015.39
2017-11-06T09:08:05.599Z,1015.42
2017-11-06T09:09:05.620Z,1015.43
2017-11-06T09:10:05.641Z,1015.44
2017-11-06T09:11:05.658Z,1015.45
2017-11-06T09:12:05.675Z,1015.44
2017-11-06T09:13:05.694Z,1015.46
2017-11-06T09:14:05.714Z,1015.46
2017-11-06T09:15:05.732Z,1015.49
2017-11-06T09:17:05.774Z,1015.48
2017-11-06T09:18:05.792Z,1015.54
2017-11-06T09:19:05.809Z,1015.57
2017-11-06T09:20:05.829Z,1015.58
2017-11-06T09:21:05.847Z,1015.6
2017-11-06T09:22:05.872Z,1015.61
2017-11-06T09:23:05.887Z,1015.66
2017-11-06T09:24:05.905Z,1015.67
2017-11-06T09:25:05.922Z,1015.68
2017-11-06T09:26:05.942Z,1015.71
2017-11-06T09:27:05.965Z,1015.77
2017-11-06T09:28:05.980Z,1015.79
2017-11-06T09:29:05.999Z,1015.8
2017-11-06T09:30:06.022Z,1015.74
2017-11-06T09:31:06.037Z,1015.78
2017-11-06T09:32:06.062Z,1015.77
2017-11-06T09:33:06.075Z,1015.77
2017-11-06T09:34:06.095Z,1015.77
2017-11-06T09:35:06.117Z,1015.79
2017-11-06T09:36:06.133Z,1015.78
2017-11-06T09:37:06.154Z,1015.76
2017-11-06T09:38:06.174Z,1015.8
2017-11-06T09:39:06.193Z,1015.8
2017-11-06T09:40:06.208Z,1015.83
2017-11-06T09:41:06.231Z,1015.79
2017-11-06T09:42:06.259Z,1015.8
2017-11-06T09:43:06.266Z,1015.82
2017-11-06T09:44:06.290Z,1015.87
2017-11-06T09:45:06.304Z,1015.84
2017-11-06T09:46:06.324Z,1015.89
2017-11-06T09:47:06.341Z,1015.92
2017-11-06T09:49:06.384Z,1015.89
2017-11-06T09:50:06.432Z,1015.86
2017-11-06T09:51:06.418Z,1015.87
2017-11-06T09:52:06.443Z,1015.92
2017-11-06T09:53:06.459Z,1015.88
2017-11-06T09:54:06.480Z,1015.9
2017-11-06T09:55:06.496Z,1015.86
2017-11-06T09:56:06.519Z,1015.86
2017-11-06T09:57:06.549Z,1015.84
2017-11-06T09:58:06.557Z,1015.87
2017-11-06T09:59:06.577Z,1015.89
2017-11-06T10:00:06.596Z,1015.87
2017-11-06T10:01:06.614Z,1015.89
2017-11-06T10:02:06.636Z,1015.9
2017-11-06T10:03:06.655Z,1015.92
2017-11-06T10:05:06.694Z,1015.91
2017-11-06T10:06:06.709Z,1015.9
2017-11-06T10:07:06.736Z,1015.85
2017-11-06T10:08:07.103Z,1015.84
2017-11-06T10:09:06.772Z,1015.87
2017-11-06T10:10:06.788Z,1015.89
2017-11-06T10:11:06.809Z,1015.89
2017-11-06T10:12:06.828Z,1015.92
2017-11-06T10:13:06.850Z,1015.97
2017-11-06T10:14:06.868Z,1015.99
2017-11-06T10:15:06.893Z,1015.99
2017-11-06T10:16:06.911Z,1016.05
2017-11-06T10:17:06.928Z,1016.08
2017-11-06T10:18:06.950Z,1016.11
2017-11-06T10:19:06.973Z,1016.12
2017-11-06T10:21:07.005Z,1016.13
2017-11-06T10:22:07.032Z,1016.13
2017-11-06T10:23:07.047Z,1016.17
2017-11-06T10:24:07.074Z,1016.11
2017-11-06T10:25:07.089Z,1016.15
2017-11-06T10:26:07.108Z,1016.11
2017-11-06T10:27:07.128Z,1016.11
2017-11-06T10:28:07.144Z,1016.1
2017-11-06T10:29:07.168Z,1016.06
2017-11-06T10:30:07.184Z,1016.09
2017-11-06T10:31:07.205Z,1016.1
2017-11-06T10:32:07.226Z,1016.08
2017-11-06T10:33:07.244Z,1016.08
2017-11-06T10:34:07.266Z,1016.09
2017-11-06T10:35:07.285Z,1016.15
2017-11-06T10:37:07.323Z,1016.12
2017-11-06T10:38:07.346Z,1016.11
2017-11-06T10:39:07.362Z,1016.13
2017-11-06T10:40:07.382Z,1016.1
2017-11-06T10:41:07.406Z,1016.04
2017-11-06T10:42:07.424Z,1016.04
2017-11-06T10:43:07.441Z,1016.03
2017-11-06T10:44:07.465Z,1016.02
2017-11-06T10:45:07.483Z,1016.02
2017-11-06T10:46:07.504Z,1016.04
2017-11-06T10:47:07.521Z,1016.03
2017-11-06T10:48:07.544Z,1016.02
2017-11-06T10:49:07.564Z,1016.04
2017-11-06T10:50:07.735Z,1016.04
2017-11-06T10:52:07.622Z,1016.05
2017-11-06T10:53:07.642Z,1016.07
2017-11-06T10:54:07.661Z,1016.09
2017-11-06T10:55:07.683Z,1016.11
2017-11-06T10:56:07.705Z,1016.1
2017-11-06T10:57:07.723Z,1016.1
2017-11-06T10:58:07.742Z,1016.09
2017-11-06T10:59:07.759Z,1016.08
2017-11-06T11:00:07.781Z,1016.08
2017-11-06T11:01:07.798Z,1016.07
2017-11-06T11:02:07.818Z,1016.07
2017-11-06T11:03:07.841Z,1016.05
2017-11-06T11:04:07.855Z,1016.09
2017-11-06T11:05:07.879Z,1016.06
2017-11-06T11:06:07.895Z,1016.02
2017-11-06T11:07:07.919Z,1016.06
2017-11-06T11:08:07.943Z,1016
2017-11-06T11:09:07.959Z,1016.02
2017-11-06T11:10:07.977Z,1016.01
2017-11-06T11:11:07.996Z,1016.05
2017-11-06T11:12:08.016Z,1016.09
2017-11-06T11:13:08.039Z,1016.03
2017-11-06T11:14:08.052Z,1016.03
2017-11-06T11:15:08.074Z,1016.06
2017-11-06T11:16:08.093Z,1016.06
2017-11-06T11:17:08.111Z,1016.09
2017-11-06T11:18:08.134Z,1016.1
2017-11-06T11:19:08.149Z,1016.07
2017-11-06T11:20:08.169Z,1016.07
2017-11-06T11:21:08.188Z,1016.1
2017-11-06T11:22:08.211Z,1016.15
2017-11-06T11:24:08.251Z,1016.14
2017-11-06T11:25:08.267Z,1016.14
2017-11-06T11:26:08.285Z,1016.17
2017-11-06T11:27:08.305Z,1016.17
2017-11-06T11:28:08.331Z,1016.19
2017-11-06T11:29:08.348Z,1016.15
2017-11-06T11:30:08.365Z,1016.21
2017-11-06T11:31:08.386Z,1016.23
2017-11-06T11:32:08.407Z,1016.33
2017-11-06T11:33:08.423Z,1016.29
2017-11-06T11:34:08.444Z,1016.32
2017-11-06T11:35:08.462Z,1016.37
2017-11-06T11:36:08.482Z,1016.35
2017-11-06T11:37:08.500Z,1016.33
2017-11-06T11:38:08.526Z,1016.38
2017-11-06T11:40:08.561Z,1016.38
2017-11-06T11:41:08.580Z,1016.37
2017-11-06T11:42:08.602Z,1016.4
2017-11-06T11:43:08.619Z,1016.44
2017-11-06T11:44:08.638Z,1016.4
2017-11-06T11:45:08.661Z,1016.38
2017-11-06T11:46:08.686Z,1016.38
2017-11-06T11:47:08.700Z,1016.36
2017-11-06T11:48:08.720Z,1016.43
2017-11-06T11:49:08.744Z,1016.39
2017-11-06T11:50:08.757Z,1016.34
2017-11-06T11:51:08.775Z,1016.39
2017-11-06T11:52:08.801Z,1016.38
2017-11-06T11:53:08.815Z,1016.4
2017-11-06T11:54:08.834Z,1016.38
2017-11-06T11:56:08.874Z,1016.44
2017-11-06T11:57:09.247Z,1016.42
2017-11-06T11:58:08.922Z,1016.4
2017-11-06T11:59:08.932Z,1016.44
2017-11-06T12:00:08.955Z,1016.41
2017-11-06T12:01:08.976Z,1016.37
2017-11-06T12:02:08.995Z,1016.39
2017-11-06T12:03:09.011Z,1016.36
2017-11-06T12:04:09.032Z,1016.3
2017-11-06T12:05:09.051Z,1016.35
2017-11-06T12:06:09.070Z,1016.34
2017-11-06T12:07:09.094Z,1016.35
2017-11-06T12:08:09.112Z,1016.39
2017-11-06T12:09:09.132Z,1016.39
2017-11-06T12:10:09.152Z,1016.41
2017-11-06T12:12:09.189Z,1016.43
2017-11-06T12:13:09.209Z,1016.39
2017-11-06T12:14:09.229Z,1016.42
2017-11-06T12:15:09.252Z,1016.39
2017-11-06T12:16:09.268Z,1016.43
2017-11-06T12:17:09.286Z,1016.39
2017-11-06T12:18:09.312Z,1016.46
2017-11-06T12:19:09.330Z,1016.48
2017-11-06T12:20:09.350Z,1016.5
2017-11-06T12:21:09.365Z,1016.55
2017-11-06T12:22:09.385Z,1016.54
2017-11-06T12:23:09.408Z,1016.56
2017-11-06T12:24:09.430Z,1016.53
2017-11-06T12:25:09.446Z,1016.61
2017-11-06T12:27:09.485Z,1016.63
2017-11-06T12:28:09.508Z,1016.68
2017-11-06T12:29:09.525Z,1016.7
2017-11-06T12:30:09.543Z,1016.75
2017-11-06T12:31:09.567Z,1016.75
2017-11-06T12:32:09.587Z,1016.75
2017-11-06T12:33:09.603Z,1016.79
2017-11-06T12:34:09.626Z,1016.8
2017-11-06T12:35:09.643Z,1016.79
2017-11-06T12:36:09.663Z,1016.83
2017-11-06T12:37:09.686Z,1016.84
2017-11-06T12:38:09.703Z,1016.84
2017-11-06T12:39:09.721Z,1016.84
2017-11-06T12:40:09.740Z,1016.87
2017-11-06T12:41:09.764Z,1016.85
2017-11-06T12:42:09.781Z,1016.83
2017-11-06T12:43:09.802Z,1016.81
2017-11-06T12:44:09.820Z,1016.8
2017-11-06T12:45:09.841Z,1016.82
2017-11-06T12:46:09.859Z,1016.83
2017-11-06T12:47:09.883Z,1016.78
2017-11-06T12:48:09.903Z,1016.79
2017-11-06T12:49:09.923Z,1016.79